sensor_id;sensor_type;location;lat;lon;timestamp;P1;durP1;ratioP1;P2;durP2;ratioP2
3939;SDS011;1984;48.312;9.244;2023-05-01T00:02:12;3.60;;;3.17;;
3939;SDS011;1984;48.312;9.244;2023-05-01T00:04:38;3.90;;;3.07;;
3939;SDS011;1984;48.312;9.244;2023-05-01T00:07:03;3.03;;;2.83;;
3939;SDS011;1984;48.312;9.244;2023-05-01T00:09:29;5.10;;;2.60;;
3939;SDS011;1984;48.312;9.244;2023-05-01T00:11:56;3.23;;;2.97;;
3939;SDS011;1984;48.312;9.244;2023-05-01T00:14:21;2.47;;;2.27;;
3939;SDS011;1984;48.312;9.244;2023-05-01T00:16:47;2.73;;;2.53;;
3939;SDS011;1984;48.312;9.244;2023-05-01T00:19:12;2.90;;;2.70;;
3939;SDS011;1984;48.312;9.244;2023-05-01T00:21:42;3.10;;;2.83;;
3939;SDS011;1984;48.312;9.244;2023-05-01T00:24:09;3.27;;;3.07;;
3939;SDS011;1984;48.312;9.244;2023-05-01T00:26:35;7.07;;;2.67;;
3939;SDS011;1984;48.312;9.244;2023-05-01T00:29:00;3.00;;;2.60;;
3939;SDS011;1984;48.312;9.244;2023-05-01T00:31:26;2.70;;;2.50;;
3939;SDS011;1984;48.312;9.244;2023-05-01T00:33:52;3.73;;;2.93;;
3939;SDS011;1984;48.312;9.244;2023-05-01T00:36:18;3.03;;;2.83;;
3939;SDS011;1984;48.312;9.244;2023-05-01T00:38:43;4.30;;;2.97;;
3939;SDS011;1984;48.312;9.244;2023-05-01T00:41:10;3.40;;;3.10;;
3939;SDS011;1984;48.312;9.244;2023-05-01T00:43:36;3.57;;;3.20;;
3939;SDS011;1984;48.312;9.244;2023-05-01T00:46:01;3.10;;;2.80;;
3939;SDS011;1984;48.312;9.244;2023-05-01T00:48:27;4.93;;;2.70;;
3939;SDS011;1984;48.312;9.244;2023-05-01T00:50:53;3.00;;;2.80;;
3939;SDS011;1984;48.312;9.244;2023-05-01T00:53:20;2.97;;;2.60;;
3939;SDS011;1984;48.312;9.244;2023-05-01T00:55:48;5.37;;;3.10;;
3939;SDS011;1984;48.312;9.244;2023-05-01T00:58:15;3.10;;;2.90;;
3939;SDS011;1984;48.312;9.244;2023-05-01T01:00:41;3.30;;;2.80;;
3939;SDS011;1984;48.312;9.244;2023-05-01T01:03:07;3.17;;;2.93;;
3939;SDS011;1984;48.312;9.244;2023-05-01T01:05:34;3.33;;;2.90;;
3939;SDS011;1984;48.312;9.244;2023-05-01T01:08:10;3.47;;;3.17;;
3939;SDS011;1984;48.312;9.244;2023-05-01T01:10:51;3.50;;;3.20;;
3939;SDS011;1984;48.312;9.244;2023-05-01T01:14:02;3.60;;;3.30;;
3939;SDS011;1984;48.312;9.244;2023-05-01T01:22:13;4.10;;;3.80;;
3939;SDS011;1984;48.312;9.244;2023-05-01T01:30:31;4.50;;;3.60;;
3939;SDS011;1984;48.312;9.244;2023-05-01T01:35:55;3.40;;;3.20;;
3939;SDS011;1984;48.312;9.244;2023-05-01T01:38:41;4.93;;;3.53;;
3939;SDS011;1984;48.312;9.244;2023-05-01T01:41:45;4.27;;;3.50;;
3939;SDS011;1984;48.312;9.244;2023-05-01T01:44:06;10.43;;;3.60;;
3939;SDS011;1984;48.312;9.244;2023-05-01T01:46:38;4.60;;;4.00;;
3939;SDS011;1984;48.312;9.244;2023-05-01T01:49:07;3.77;;;3.27;;
3939;SDS011;1984;48.312;9.244;2023-05-01T01:51:39;4.23;;;3.40;;
3939;SDS011;1984;48.312;9.244;2023-05-01T01:54:06;3.30;;;3.03;;
3939;SDS011;1984;48.312;9.244;2023-05-01T01:56:33;7.83;;;3.93;;
3939;SDS011;1984;48.312;9.244;2023-05-01T01:59:01;3.30;;;3.00;;
3939;SDS011;1984;48.312;9.244;2023-05-01T02:01:30;3.87;;;3.57;;
3939;SDS011;1984;48.312;9.244;2023-05-01T02:03:58;5.93;;;3.60;;
3939;SDS011;1984;48.312;9.244;2023-05-01T02:06:24;3.17;;;2.90;;
3939;SDS011;1984;48.312;9.244;2023-05-01T02:08:51;5.10;;;3.53;;
3939;SDS011;1984;48.312;9.244;2023-05-01T02:11:18;3.53;;;3.23;;
3939;SDS011;1984;48.312;9.244;2023-05-01T02:13:46;3.13;;;2.93;;
3939;SDS011;1984;48.312;9.244;2023-05-01T02:16:13;5.60;;;3.67;;
3939;SDS011;1984;48.312;9.244;2023-05-01T02:18:40;3.63;;;3.23;;
3939;SDS011;1984;48.312;9.244;2023-05-01T02:21:06;3.97;;;3.57;;
3939;SDS011;1984;48.312;9.244;2023-05-01T02:23:33;3.60;;;3.30;;
3939;SDS011;1984;48.312;9.244;2023-05-01T02:25:59;3.07;;;2.87;;
3939;SDS011;1984;48.312;9.244;2023-05-01T02:28:28;3.90;;;3.60;;
3939;SDS011;1984;48.312;9.244;2023-05-01T02:30:54;3.37;;;3.17;;
3939;SDS011;1984;48.312;9.244;2023-05-01T02:33:21;3.40;;;3.10;;
3939;SDS011;1984;48.312;9.244;2023-05-01T02:35:47;3.57;;;3.27;;
3939;SDS011;1984;48.312;9.244;2023-05-01T02:38:13;4.23;;;3.73;;
3939;SDS011;1984;48.312;9.244;2023-05-01T02:40:41;4.50;;;4.20;;
3939;SDS011;1984;48.312;9.244;2023-05-01T02:43:11;7.00;;;3.50;;
3939;SDS011;1984;48.312;9.244;2023-05-01T02:45:40;5.10;;;3.70;;
3939;SDS011;1984;48.312;9.244;2023-05-01T02:48:08;5.00;;;4.30;;
3939;SDS011;1984;48.312;9.244;2023-05-01T02:50:36;3.53;;;3.23;;
3939;SDS011;1984;48.312;9.244;2023-05-01T02:53:04;3.33;;;3.07;;
3939;SDS011;1984;48.312;9.244;2023-05-01T02:55:31;3.63;;;3.20;;
3939;SDS011;1984;48.312;9.244;2023-05-01T02:57:57;3.43;;;3.13;;
3939;SDS011;1984;48.312;9.244;2023-05-01T03:00:24;5.63;;;3.70;;
3939;SDS011;1984;48.312;9.244;2023-05-01T03:02:52;4.27;;;3.90;;
3939;SDS011;1984;48.312;9.244;2023-05-01T03:05:18;4.17;;;3.87;;
3939;SDS011;1984;48.312;9.244;2023-05-01T03:07:44;4.23;;;3.83;;
3939;SDS011;1984;48.312;9.244;2023-05-01T03:10:10;9.40;;;4.20;;
3939;SDS011;1984;48.312;9.244;2023-05-01T03:12:35;4.30;;;3.90;;
3939;SDS011;1984;48.312;9.244;2023-05-01T03:15:01;4.50;;;4.10;;
3939;SDS011;1984;48.312;9.244;2023-05-01T03:17:27;7.43;;;4.40;;
3939;SDS011;1984;48.312;9.244;2023-05-01T03:19:53;4.30;;;3.50;;
3939;SDS011;1984;48.312;9.244;2023-05-01T03:22:19;3.93;;;3.63;;
3939;SDS011;1984;48.312;9.244;2023-05-01T03:24:44;3.60;;;3.30;;
3939;SDS011;1984;48.312;9.244;2023-05-01T03:27:11;3.57;;;3.27;;
3939;SDS011;1984;48.312;9.244;2023-05-01T03:29:37;4.90;;;3.60;;
3939;SDS011;1984;48.312;9.244;2023-05-01T03:32:02;5.27;;;3.67;;
3939;SDS011;1984;48.312;9.244;2023-05-01T03:34:28;4.63;;;3.73;;
3939;SDS011;1984;48.312;9.244;2023-05-01T03:36:54;3.67;;;3.33;;
3939;SDS011;1984;48.312;9.244;2023-05-01T03:39:20;5.00;;;4.20;;
3939;SDS011;1984;48.312;9.244;2023-05-01T03:41:45;3.53;;;3.23;;
3939;SDS011;1984;48.312;9.244;2023-05-01T03:44:11;3.53;;;3.23;;
3939;SDS011;1984;48.312;9.244;2023-05-01T03:46:36;4.63;;;4.23;;
3939;SDS011;1984;48.312;9.244;2023-05-01T03:49:02;7.97;;;4.47;;
3939;SDS011;1984;48.312;9.244;2023-05-01T03:51:27;4.80;;;4.30;;
3939;SDS011;1984;48.312;9.244;2023-05-01T03:53:53;5.17;;;4.23;;
3939;SDS011;1984;48.312;9.244;2023-05-01T03:56:22;5.67;;;4.80;;
3939;SDS011;1984;48.312;9.244;2023-05-01T03:58:49;5.60;;;4.80;;
3939;SDS011;1984;48.312;9.244;2023-05-01T04:01:18;4.20;;;3.90;;
3939;SDS011;1984;48.312;9.244;2023-05-01T04:03:44;6.37;;;4.77;;
3939;SDS011;1984;48.312;9.244;2023-05-01T04:06:10;5.00;;;4.60;;
3939;SDS011;1984;48.312;9.244;2023-05-01T04:08:36;4.40;;;4.00;;
3939;SDS011;1984;48.312;9.244;2023-05-01T04:11:02;8.57;;;4.27;;
3939;SDS011;1984;48.312;9.244;2023-05-01T04:13:27;4.93;;;4.30;;
3939;SDS011;1984;48.312;9.244;2023-05-01T04:15:53;6.77;;;4.30;;
3939;SDS011;1984;48.312;9.244;2023-05-01T04:18:19;10.43;;;4.77;;
3939;SDS011;1984;48.312;9.244;2023-05-01T04:20:45;5.73;;;5.00;;
3939;SDS011;1984;48.312;9.244;2023-05-01T04:23:10;14.07;;;5.33;;
3939;SDS011;1984;48.312;9.244;2023-05-01T04:25:36;7.30;;;5.57;;
3939;SDS011;1984;48.312;9.244;2023-05-01T04:28:02;7.87;;;5.10;;
3939;SDS011;1984;48.312;9.244;2023-05-01T04:30:28;8.20;;;5.27;;
3939;SDS011;1984;48.312;9.244;2023-05-01T04:32:57;5.57;;;4.20;;
3939;SDS011;1984;48.312;9.244;2023-05-01T04:35:23;5.10;;;4.20;;
3939;SDS011;1984;48.312;9.244;2023-05-01T04:37:50;7.83;;;4.67;;
3939;SDS011;1984;48.312;9.244;2023-05-01T04:40:15;4.00;;;3.70;;
3939;SDS011;1984;48.312;9.244;2023-05-01T04:42:41;4.27;;;3.97;;
3939;SDS011;1984;48.312;9.244;2023-05-01T04:45:07;4.93;;;4.43;;
3939;SDS011;1984;48.312;9.244;2023-05-01T04:47:32;6.40;;;4.77;;
3939;SDS011;1984;48.312;9.244;2023-05-01T04:49:58;5.37;;;4.87;;
3939;SDS011;1984;48.312;9.244;2023-05-01T04:52:24;6.33;;;4.67;;
3939;SDS011;1984;48.312;9.244;2023-05-01T04:54:49;4.37;;;3.97;;
3939;SDS011;1984;48.312;9.244;2023-05-01T04:57:15;6.47;;;4.37;;
3939;SDS011;1984;48.312;9.244;2023-05-01T04:59:40;4.63;;;4.23;;
3939;SDS011;1984;48.312;9.244;2023-05-01T05:02:07;5.50;;;4.23;;
3939;SDS011;1984;48.312;9.244;2023-05-01T05:04:32;5.53;;;4.30;;
3939;SDS011;1984;48.312;9.244;2023-05-01T05:06:58;5.57;;;5.00;;
3939;SDS011;1984;48.312;9.244;2023-05-01T05:09:23;5.50;;;5.00;;
3939;SDS011;1984;48.312;9.244;2023-05-01T05:11:49;5.00;;;4.60;;
3939;SDS011;1984;48.312;9.244;2023-05-01T05:14:15;5.20;;;4.50;;
3939;SDS011;1984;48.312;9.244;2023-05-01T05:16:40;5.80;;;5.20;;
3939;SDS011;1984;48.312;9.244;2023-05-01T05:19:06;5.53;;;4.50;;
3939;SDS011;1984;48.312;9.244;2023-05-01T05:21:32;6.83;;;5.10;;
3939;SDS011;1984;48.312;9.244;2023-05-01T05:23:57;9.00;;;5.73;;
3939;SDS011;1984;48.312;9.244;2023-05-01T05:26:23;13.30;;;8.00;;
3939;SDS011;1984;48.312;9.244;2023-05-01T05:28:50;9.67;;;6.60;;
3939;SDS011;1984;48.312;9.244;2023-05-01T05:31:16;6.93;;;5.30;;
3939;SDS011;1984;48.312;9.244;2023-05-01T05:33:41;6.83;;;5.50;;
3939;SDS011;1984;48.312;9.244;2023-05-01T05:36:07;5.50;;;5.00;;
3939;SDS011;1984;48.312;9.244;2023-05-01T05:38:32;8.43;;;6.70;;
3939;SDS011;1984;48.312;9.244;2023-05-01T05:40:58;11.30;;;7.33;;
3939;SDS011;1984;48.312;9.244;2023-05-01T05:43:24;15.90;;;8.70;;
3939;SDS011;1984;48.312;9.244;2023-05-01T05:45:50;10.37;;;8.17;;
3939;SDS011;1984;48.312;9.244;2023-05-01T05:48:20;13.23;;;8.50;;
3939;SDS011;1984;48.312;9.244;2023-05-01T05:50:45;11.60;;;7.13;;
3939;SDS011;1984;48.312;9.244;2023-05-01T05:53:11;8.50;;;6.47;;
3939;SDS011;1984;48.312;9.244;2023-05-01T05:55:37;10.57;;;7.40;;
3939;SDS011;1984;48.312;9.244;2023-05-01T05:58:03;10.27;;;7.63;;
3939;SDS011;1984;48.312;9.244;2023-05-01T06:00:28;10.23;;;8.00;;
3939;SDS011;1984;48.312;9.244;2023-05-01T06:02:54;11.10;;;8.33;;
3939;SDS011;1984;48.312;9.244;2023-05-01T06:05:20;12.30;;;9.10;;
3939;SDS011;1984;48.312;9.244;2023-05-01T06:07:46;13.57;;;8.60;;
3939;SDS011;1984;48.312;9.244;2023-05-01T06:10:11;11.93;;;7.83;;
3939;SDS011;1984;48.312;9.244;2023-05-01T06:12:37;10.10;;;8.00;;
3939;SDS011;1984;48.312;9.244;2023-05-01T06:15:03;9.37;;;7.90;;
3939;SDS011;1984;48.312;9.244;2023-05-01T06:17:29;9.87;;;7.77;;
3939;SDS011;1984;48.312;9.244;2023-05-01T06:19:54;12.43;;;8.67;;
3939;SDS011;1984;48.312;9.244;2023-05-01T06:22:20;12.83;;;7.87;;
3939;SDS011;1984;48.312;9.244;2023-05-01T06:24:46;13.30;;;8.60;;
3939;SDS011;1984;48.312;9.244;2023-05-01T06:27:11;11.40;;;7.80;;
3939;SDS011;1984;48.312;9.244;2023-05-01T06:29:37;8.73;;;6.90;;
3939;SDS011;1984;48.312;9.244;2023-05-01T06:32:03;9.43;;;6.87;;
3939;SDS011;1984;48.312;9.244;2023-05-01T06:34:29;7.30;;;6.17;;
3939;SDS011;1984;48.312;9.244;2023-05-01T06:36:54;7.13;;;6.00;;
3939;SDS011;1984;48.312;9.244;2023-05-01T06:39:20;7.27;;;6.00;;
3939;SDS011;1984;48.312;9.244;2023-05-01T06:41:46;15.03;;;5.93;;
3939;SDS011;1984;48.312;9.244;2023-05-01T06:44:12;7.50;;;6.13;;
3939;SDS011;1984;48.312;9.244;2023-05-01T06:46:37;6.13;;;5.40;;
3939;SDS011;1984;48.312;9.244;2023-05-01T06:49:03;9.23;;;5.60;;
3939;SDS011;1984;48.312;9.244;2023-05-01T06:51:28;6.47;;;5.80;;
3939;SDS011;1984;48.312;9.244;2023-05-01T06:53:55;6.13;;;5.03;;
3939;SDS011;1984;48.312;9.244;2023-05-01T06:56:21;7.70;;;5.17;;
3939;SDS011;1984;48.312;9.244;2023-05-01T06:58:46;5.03;;;4.53;;
3939;SDS011;1984;48.312;9.244;2023-05-01T07:01:12;5.83;;;5.20;;
3939;SDS011;1984;48.312;9.244;2023-05-01T07:03:37;7.80;;;6.93;;
3939;SDS011;1984;48.312;9.244;2023-05-01T07:06:03;6.37;;;5.70;;
3939;SDS011;1984;48.312;9.244;2023-05-01T07:08:29;13.50;;;5.10;;
3939;SDS011;1984;48.312;9.244;2023-05-01T07:10:54;7.47;;;5.50;;
3939;SDS011;1984;48.312;9.244;2023-05-01T07:13:20;5.83;;;5.33;;
3939;SDS011;1984;48.312;9.244;2023-05-01T07:15:45;5.60;;;5.10;;
3939;SDS011;1984;48.312;9.244;2023-05-01T07:18:12;11.23;;;6.30;;
3939;SDS011;1984;48.312;9.244;2023-05-01T07:20:37;7.07;;;6.37;;
3939;SDS011;1984;48.312;9.244;2023-05-01T07:23:03;7.07;;;6.20;;
3939;SDS011;1984;48.312;9.244;2023-05-01T07:25:28;10.40;;;6.60;;
3939;SDS011;1984;48.312;9.244;2023-05-01T07:27:54;12.10;;;7.43;;
3939;SDS011;1984;48.312;9.244;2023-05-01T07:30:20;9.33;;;7.30;;
3939;SDS011;1984;48.312;9.244;2023-05-01T07:32:46;10.33;;;7.47;;
3939;SDS011;1984;48.312;9.244;2023-05-01T07:35:11;10.07;;;7.53;;
3939;SDS011;1984;48.312;9.244;2023-05-01T07:37:37;10.73;;;8.63;;
3939;SDS011;1984;48.312;9.244;2023-05-01T07:40:03;9.80;;;7.40;;
3939;SDS011;1984;48.312;9.244;2023-05-01T07:42:28;7.60;;;6.57;;
3939;SDS011;1984;48.312;9.244;2023-05-01T07:44:54;7.90;;;6.83;;
3939;SDS011;1984;48.312;9.244;2023-05-01T07:47:20;9.80;;;6.90;;
3939;SDS011;1984;48.312;9.244;2023-05-01T07:49:46;12.93;;;6.87;;
3939;SDS011;1984;48.312;9.244;2023-05-01T07:52:11;8.67;;;6.20;;
3939;SDS011;1984;48.312;9.244;2023-05-01T07:54:37;6.57;;;5.87;;
3939;SDS011;1984;48.312;9.244;2023-05-01T07:57:04;6.13;;;5.33;;
3939;SDS011;1984;48.312;9.244;2023-05-01T07:59:30;7.17;;;5.37;;
3939;SDS011;1984;48.312;9.244;2023-05-01T08:01:55;6.60;;;5.37;;
3939;SDS011;1984;48.312;9.244;2023-05-01T08:04:21;9.27;;;5.53;;
3939;SDS011;1984;48.312;9.244;2023-05-01T08:06:49;5.13;;;4.70;;
3939;SDS011;1984;48.312;9.244;2023-05-01T08:09:15;9.27;;;4.97;;
3939;SDS011;1984;48.312;9.244;2023-05-01T08:11:41;7.17;;;5.77;;
3939;SDS011;1984;48.312;9.244;2023-05-01T08:14:06;6.63;;;5.30;;
3939;SDS011;1984;48.312;9.244;2023-05-01T08:16:33;6.90;;;5.33;;
3939;SDS011;1984;48.312;9.244;2023-05-01T08:18:59;8.63;;;5.27;;
3939;SDS011;1984;48.312;9.244;2023-05-01T08:21:25;3.97;;;3.67;;
3939;SDS011;1984;48.312;9.244;2023-05-01T08:23:50;8.90;;;6.33;;
3939;SDS011;1984;48.312;9.244;2023-05-01T08:26:19;5.73;;;5.17;;
3939;SDS011;1984;48.312;9.244;2023-05-01T08:28:45;5.20;;;4.60;;
3939;SDS011;1984;48.312;9.244;2023-05-01T08:31:11;4.87;;;4.37;;
3939;SDS011;1984;48.312;9.244;2023-05-01T08:33:37;5.57;;;5.07;;
3939;SDS011;1984;48.312;9.244;2023-05-01T08:36:05;8.60;;;4.90;;
3939;SDS011;1984;48.312;9.244;2023-05-01T08:38:32;4.83;;;4.43;;
3939;SDS011;1984;48.312;9.244;2023-05-01T08:40:57;5.23;;;4.10;;
3939;SDS011;1984;48.312;9.244;2023-05-01T08:43:25;4.10;;;3.70;;
3939;SDS011;1984;48.312;9.244;2023-05-01T08:45:53;5.30;;;3.90;;
3939;SDS011;1984;48.312;9.244;2023-05-01T08:48:21;4.73;;;4.30;;
3939;SDS011;1984;48.312;9.244;2023-05-01T08:50:49;6.07;;;4.67;;
3939;SDS011;1984;48.312;9.244;2023-05-01T08:53:16;3.80;;;3.50;;
3939;SDS011;1984;48.312;9.244;2023-05-01T08:55:44;5.07;;;3.97;;
3939;SDS011;1984;48.312;9.244;2023-05-01T08:58:11;3.83;;;3.40;;
3939;SDS011;1984;48.312;9.244;2023-05-01T09:00:38;4.03;;;3.60;;
3939;SDS011;1984;48.312;9.244;2023-05-01T09:03:05;3.83;;;3.50;;
3939;SDS011;1984;48.312;9.244;2023-05-01T09:05:32;4.10;;;3.50;;
3939;SDS011;1984;48.312;9.244;2023-05-01T09:07:58;5.17;;;3.67;;
3939;SDS011;1984;48.312;9.244;2023-05-01T09:10:24;4.67;;;4.17;;
3939;SDS011;1984;48.312;9.244;2023-05-01T09:13:00;4.50;;;4.10;;
3939;SDS011;1984;48.312;9.244;2023-05-01T09:15:27;4.77;;;4.27;;
3939;SDS011;1984;48.312;9.244;2023-05-01T09:17:53;3.83;;;3.50;;
3939;SDS011;1984;48.312;9.244;2023-05-01T09:20:19;4.63;;;4.23;;
3939;SDS011;1984;48.312;9.244;2023-05-01T09:22:45;4.03;;;3.57;;
3939;SDS011;1984;48.312;9.244;2023-05-01T09:25:11;4.93;;;4.20;;
3939;SDS011;1984;48.312;9.244;2023-05-01T09:27:36;4.80;;;4.03;;
3939;SDS011;1984;48.312;9.244;2023-05-01T09:30:03;4.80;;;4.30;;
3939;SDS011;1984;48.312;9.244;2023-05-01T09:32:30;9.87;;;4.13;;
3939;SDS011;1984;48.312;9.244;2023-05-01T09:35:08;4.97;;;4.23;;
3939;SDS011;1984;48.312;9.244;2023-05-01T09:37:38;3.60;;;3.30;;
3939;SDS011;1984;48.312;9.244;2023-05-01T09:40:08;5.83;;;3.83;;
3939;SDS011;1984;48.312;9.244;2023-05-01T09:42:36;6.10;;;4.10;;
3939;SDS011;1984;48.312;9.244;2023-05-01T09:45:03;3.67;;;3.37;;
3939;SDS011;1984;48.312;9.244;2023-05-01T09:47:39;3.73;;;3.43;;
3939;SDS011;1984;48.312;9.244;2023-05-01T09:50:05;4.43;;;3.37;;
3939;SDS011;1984;48.312;9.244;2023-05-01T09:52:31;6.67;;;2.90;;
3939;SDS011;1984;48.312;9.244;2023-05-01T09:55:10;3.50;;;3.20;;
3939;SDS011;1984;48.312;9.244;2023-05-01T09:57:40;3.13;;;2.93;;
3939;SDS011;1984;48.312;9.244;2023-05-01T10:00:07;3.80;;;3.20;;
3939;SDS011;1984;48.312;9.244;2023-05-01T10:02:34;10.60;;;4.00;;
3939;SDS011;1984;48.312;9.244;2023-05-01T10:05:00;3.73;;;3.40;;
3939;SDS011;1984;48.312;9.244;2023-05-01T10:07:26;3.43;;;3.13;;
3939;SDS011;1984;48.312;9.244;2023-05-01T10:09:53;3.60;;;3.30;;
3939;SDS011;1984;48.312;9.244;2023-05-01T10:12:26;3.13;;;2.93;;
3939;SDS011;1984;48.312;9.244;2023-05-01T10:14:53;3.90;;;3.50;;
3939;SDS011;1984;48.312;9.244;2023-05-01T10:17:19;4.37;;;3.60;;
3939;SDS011;1984;48.312;9.244;2023-05-01T10:19:45;4.03;;;3.10;;
3939;SDS011;1984;48.312;9.244;2023-05-01T10:22:12;3.60;;;3.30;;
3939;SDS011;1984;48.312;9.244;2023-05-01T10:24:38;3.37;;;3.07;;
3939;SDS011;1984;48.312;9.244;2023-05-01T10:27:08;4.00;;;3.43;;
3939;SDS011;1984;48.312;9.244;2023-05-01T10:29:34;3.33;;;3.03;;
3939;SDS011;1984;48.312;9.244;2023-05-01T10:32:02;3.23;;;2.97;;
3939;SDS011;1984;48.312;9.244;2023-05-01T10:34:29;4.27;;;3.23;;
3939;SDS011;1984;48.312;9.244;2023-05-01T10:36:57;3.43;;;3.13;;
3939;SDS011;1984;48.312;9.244;2023-05-01T10:39:34;3.10;;;2.90;;
3939;SDS011;1984;48.312;9.244;2023-05-01T10:42:04;3.17;;;2.97;;
3939;SDS011;1984;48.312;9.244;2023-05-01T10:44:38;3.10;;;2.90;;
3939;SDS011;1984;48.312;9.244;2023-05-01T10:50:09;4.00;;;3.60;;
3939;SDS011;1984;48.312;9.244;2023-05-01T10:55:38;3.93;;;3.20;;
3939;SDS011;1984;48.312;9.244;2023-05-01T10:58:08;3.13;;;2.93;;
3939;SDS011;1984;48.312;9.244;2023-05-01T11:00:38;2.90;;;2.70;;
3939;SDS011;1984;48.312;9.244;2023-05-01T11:08:28;4.47;;;3.00;;
3939;SDS011;1984;48.312;9.244;2023-05-01T11:13:59;4.03;;;3.63;;
3939;SDS011;1984;48.312;9.244;2023-05-01T11:19:04;6.63;;;3.10;;
3939;SDS011;1984;48.312;9.244;2023-05-01T11:21:30;2.57;;;2.47;;
3939;SDS011;1984;48.312;9.244;2023-05-01T11:24:00;3.37;;;3.10;;
3939;SDS011;1984;48.312;9.244;2023-05-01T11:26:38;3.20;;;3.00;;
3939;SDS011;1984;48.312;9.244;2023-05-01T11:29:06;2.73;;;2.53;;
3939;SDS011;1984;48.312;9.244;2023-05-01T11:31:34;3.43;;;3.17;;
3939;SDS011;1984;48.312;9.244;2023-05-01T11:34:00;3.37;;;3.07;;
3939;SDS011;1984;48.312;9.244;2023-05-01T11:36:27;4.67;;;2.47;;
3939;SDS011;1984;48.312;9.244;2023-05-01T11:38:54;2.57;;;2.37;;
3939;SDS011;1984;48.312;9.244;2023-05-01T11:41:26;3.27;;;2.73;;
3939;SDS011;1984;48.312;9.244;2023-05-01T11:43:52;4.63;;;2.80;;
3939;SDS011;1984;48.312;9.244;2023-05-01T11:46:25;4.47;;;2.90;;
3939;SDS011;1984;48.312;9.244;2023-05-01T11:48:53;4.40;;;2.40;;
3939;SDS011;1984;48.312;9.244;2023-05-01T11:51:19;4.37;;;2.40;;
3939;SDS011;1984;48.312;9.244;2023-05-01T11:56:32;2.97;;;2.70;;
3939;SDS011;1984;48.312;9.244;2023-05-01T11:59:08;2.80;;;2.60;;
3939;SDS011;1984;48.312;9.244;2023-05-01T12:01:42;2.53;;;2.33;;
3939;SDS011;1984;48.312;9.244;2023-05-01T12:04:09;2.40;;;2.30;;
3939;SDS011;1984;48.312;9.244;2023-05-01T12:06:39;2.77;;;2.57;;
3939;SDS011;1984;48.312;9.244;2023-05-01T12:09:15;2.70;;;2.50;;
3939;SDS011;1984;48.312;9.244;2023-05-01T12:11:42;2.80;;;2.60;;
3939;SDS011;1984;48.312;9.244;2023-05-01T12:14:09;2.93;;;2.73;;
3939;SDS011;1984;48.312;9.244;2023-05-01T12:16:35;7.60;;;3.23;;
3939;SDS011;1984;48.312;9.244;2023-05-01T12:19:01;3.50;;;3.20;;
3939;SDS011;1984;48.312;9.244;2023-05-01T12:21:27;4.90;;;2.53;;
3939;SDS011;1984;48.312;9.244;2023-05-01T12:23:53;2.40;;;2.27;;
3939;SDS011;1984;48.312;9.244;2023-05-01T12:26:19;2.67;;;2.47;;
3939;SDS011;1984;48.312;9.244;2023-05-01T12:28:56;2.87;;;2.67;;
3939;SDS011;1984;48.312;9.244;2023-05-01T12:31:29;3.00;;;2.73;;
3939;SDS011;1984;48.312;9.244;2023-05-01T12:33:56;2.60;;;2.40;;
3939;SDS011;1984;48.312;9.244;2023-05-01T12:36:22;2.80;;;2.60;;
3939;SDS011;1984;48.312;9.244;2023-05-01T12:39:08;2.73;;;2.53;;
3939;SDS011;1984;48.312;9.244;2023-05-01T12:44:20;2.50;;;2.30;;
3939;SDS011;1984;48.312;9.244;2023-05-01T12:46:54;3.33;;;2.53;;
3939;SDS011;1984;48.312;9.244;2023-05-01T12:49:23;2.80;;;2.33;;
3939;SDS011;1984;48.312;9.244;2023-05-01T12:51:50;2.57;;;1.90;;
3939;SDS011;1984;48.312;9.244;2023-05-01T12:54:21;2.70;;;2.50;;
3939;SDS011;1984;48.312;9.244;2023-05-01T12:56:53;3.67;;;2.90;;
3939;SDS011;1984;48.312;9.244;2023-05-01T12:59:32;2.90;;;2.60;;
3939;SDS011;1984;48.312;9.244;2023-05-01T13:02:01;3.17;;;2.90;;
3939;SDS011;1984;48.312;9.244;2023-05-01T13:04:28;3.23;;;2.87;;
3939;SDS011;1984;48.312;9.244;2023-05-01T13:06:54;4.70;;;3.33;;
3939;SDS011;1984;48.312;9.244;2023-05-01T13:09:21;2.20;;;2.07;;
3939;SDS011;1984;48.312;9.244;2023-05-01T13:11:57;2.77;;;2.57;;
3939;SDS011;1984;48.312;9.244;2023-05-01T13:14:29;3.20;;;3.00;;
3939;SDS011;1984;48.312;9.244;2023-05-01T13:17:02;5.03;;;3.00;;
3939;SDS011;1984;48.312;9.244;2023-05-01T13:19:27;3.57;;;3.00;;
3939;SDS011;1984;48.312;9.244;2023-05-01T13:21:56;2.90;;;2.70;;
3939;SDS011;1984;48.312;9.244;2023-05-01T13:24:22;3.10;;;2.80;;
3939;SDS011;1984;48.312;9.244;2023-05-01T13:26:55;3.10;;;2.77;;
3939;SDS011;1984;48.312;9.244;2023-05-01T13:29:25;2.50;;;2.40;;
3939;SDS011;1984;48.312;9.244;2023-05-01T13:31:50;4.47;;;2.37;;
3939;SDS011;1984;48.312;9.244;2023-05-01T13:34:18;2.80;;;2.60;;
3939;SDS011;1984;48.312;9.244;2023-05-01T13:36:49;2.87;;;2.67;;
3939;SDS011;1984;48.312;9.244;2023-05-01T13:39:18;2.23;;;2.10;;
3939;SDS011;1984;48.312;9.244;2023-05-01T13:41:44;2.40;;;2.20;;
3939;SDS011;1984;48.312;9.244;2023-05-01T13:44:10;2.60;;;2.40;;
3939;SDS011;1984;48.312;9.244;2023-05-01T13:46:36;2.53;;;2.33;;
3939;SDS011;1984;48.312;9.244;2023-05-01T13:49:06;4.70;;;2.53;;
3939;SDS011;1984;48.312;9.244;2023-05-01T13:51:32;2.20;;;2.10;;
3939;SDS011;1984;48.312;9.244;2023-05-01T13:54:01;4.67;;;2.10;;
3939;SDS011;1984;48.312;9.244;2023-05-01T13:56:28;6.40;;;2.10;;
3939;SDS011;1984;48.312;9.244;2023-05-01T13:58:56;2.00;;;1.77;;
3939;SDS011;1984;48.312;9.244;2023-05-01T14:01:23;2.37;;;2.27;;
3939;SDS011;1984;48.312;9.244;2023-05-01T14:03:49;2.50;;;2.30;;
3939;SDS011;1984;48.312;9.244;2023-05-01T14:06:16;3.50;;;2.50;;
3939;SDS011;1984;48.312;9.244;2023-05-01T14:08:43;3.80;;;2.03;;
3939;SDS011;1984;48.312;9.244;2023-05-01T14:11:11;2.07;;;1.97;;
3939;SDS011;1984;48.312;9.244;2023-05-01T14:13:40;2.30;;;2.10;;
3939;SDS011;1984;48.312;9.244;2023-05-01T14:16:07;2.33;;;2.13;;
3939;SDS011;1984;48.312;9.244;2023-05-01T14:18:35;2.30;;;2.20;;
3939;SDS011;1984;48.312;9.244;2023-05-01T14:21:07;2.00;;;1.90;;
3939;SDS011;1984;48.312;9.244;2023-05-01T14:23:33;2.00;;;1.90;;
3939;SDS011;1984;48.312;9.244;2023-05-01T14:25:59;1.50;;;1.40;;
3939;SDS011;1984;48.312;9.244;2023-05-01T14:28:25;1.90;;;1.80;;
3939;SDS011;1984;48.312;9.244;2023-05-01T14:30:50;1.90;;;1.80;;
3939;SDS011;1984;48.312;9.244;2023-05-01T14:33:18;1.77;;;1.67;;
3939;SDS011;1984;48.312;9.244;2023-05-01T14:35:48;2.70;;;1.77;;
3939;SDS011;1984;48.312;9.244;2023-05-01T14:38:15;2.10;;;1.83;;
3939;SDS011;1984;48.312;9.244;2023-05-01T14:40:42;2.00;;;1.90;;
3939;SDS011;1984;48.312;9.244;2023-05-01T14:43:09;2.50;;;2.30;;
3939;SDS011;1984;48.312;9.244;2023-05-01T14:45:40;2.23;;;2.03;;
3939;SDS011;1984;48.312;9.244;2023-05-01T14:48:07;2.30;;;1.70;;
3939;SDS011;1984;48.312;9.244;2023-05-01T14:50:34;5.53;;;2.57;;
3939;SDS011;1984;48.312;9.244;2023-05-01T14:53:00;7.10;;;2.10;;
3939;SDS011;1984;48.312;9.244;2023-05-01T14:55:29;2.20;;;2.10;;
3939;SDS011;1984;48.312;9.244;2023-05-01T14:57:58;2.33;;;2.13;;
3939;SDS011;1984;48.312;9.244;2023-05-01T15:00:25;2.23;;;2.13;;
3939;SDS011;1984;48.312;9.244;2023-05-01T15:02:51;3.00;;;2.80;;
3939;SDS011;1984;48.312;9.244;2023-05-01T15:05:19;2.90;;;2.70;;
3939;SDS011;1984;48.312;9.244;2023-05-01T15:07:44;2.47;;;2.27;;
3939;SDS011;1984;48.312;9.244;2023-05-01T15:10:10;1.77;;;1.67;;
3939;SDS011;1984;48.312;9.244;2023-05-01T15:12:36;6.20;;;2.10;;
3939;SDS011;1984;48.312;9.244;2023-05-01T15:15:02;2.03;;;1.90;;
3939;SDS011;1984;48.312;9.244;2023-05-01T15:17:28;2.40;;;2.20;;
3939;SDS011;1984;48.312;9.244;2023-05-01T15:19:53;2.43;;;2.23;;
3939;SDS011;1984;48.312;9.244;2023-05-01T15:22:19;1.73;;;1.63;;
3939;SDS011;1984;48.312;9.244;2023-05-01T15:24:45;3.00;;;2.80;;
3939;SDS011;1984;48.312;9.244;2023-05-01T15:27:10;2.93;;;2.70;;
3939;SDS011;1984;48.312;9.244;2023-05-01T15:29:36;4.33;;;2.50;;
3939;SDS011;1984;48.312;9.244;2023-05-01T15:32:03;4.43;;;3.10;;
3939;SDS011;1984;48.312;9.244;2023-05-01T15:34:29;3.23;;;2.80;;
3939;SDS011;1984;48.312;9.244;2023-05-01T15:36:55;4.00;;;2.20;;
3939;SDS011;1984;48.312;9.244;2023-05-01T15:39:20;5.23;;;4.27;;
3939;SDS011;1984;48.312;9.244;2023-05-01T15:41:46;5.47;;;3.80;;
3939;SDS011;1984;48.312;9.244;2023-05-01T15:44:12;5.17;;;4.07;;
3939;SDS011;1984;48.312;9.244;2023-05-01T15:46:37;7.07;;;4.83;;
3939;SDS011;1984;48.312;9.244;2023-05-01T15:49:07;5.57;;;4.17;;
3939;SDS011;1984;48.312;9.244;2023-05-01T15:51:33;3.30;;;2.90;;
3939;SDS011;1984;48.312;9.244;2023-05-01T15:53:59;6.07;;;5.47;;